Time;durP1;ratioP1;P1;durP2;ratioP2;P2;SDS_P1;SDS_P2;PMS_P1;PMS_P2;Temp;Humidity;BMP_temperature;BMP_pressure;BME280_temperature;BME280_humidity;BME280_pressure;Samples;Min_cycle;Max_cycle;Signal;HPM_P1;HPM_P2
2023/11/05 00:01:51;;;;;;;;;;;19.90;55.80;;;;;;1603796;72;1105;-61
2023/11/05 00:03:53;;;;;;;;;;;19.90;55.70;;;;;;1600880;72;752;-61
2023/11/05 00:05:55;;;;;;;;;;;19.90;55.80;;;;;;1609697;72;580;-60
2023/11/05 00:07:57;;;;;;;;;;;19.90;55.90;;;;;;1607817;72;676;-59
2023/11/05 00:09:59;;;;;;;;;;;19.90;55.70;;;;;;1603173;72;787;-60
2023/11/05 00:12:01;;;;;;;;;;;19.90;55.70;;;;;;1600269;72;1198;-60
2023/11/05 00:14:03;;;;;;;;;;;19.80;55.70;;;;;;1588584;73;1234;-61
2023/11/05 00:16:05;;;;;;;;;;;19.90;55.80;;;;;;1561083;75;602;-61
2023/11/05 00:18:07;;;;;;;;;;;19.80;55.70;;;;;;1607846;72;1922;-61
2023/11/05 00:20:09;;;;;;;;;;;19.80;55.70;;;;;;1596413;72;785;-61
2023/11/05 00:22:11;;;;;;;;;;;19.90;55.80;;;;;;1603983;72;1269;-61
2023/11/05 00:24:16;;;;;;;;;;;19.80;55.70;;;;;;1603620;72;612;-60
2023/11/05 00:26:16;;;;;;;;;;;19.80;55.70;;;;;;1605796;72;1536;-61
2023/11/05 00:28:18;;;;;;;;;;;19.90;55.80;;;;;;1605473;72;1508;-60
2023/11/05 00:30:20;;;;;;;;;;;19.80;55.70;;;;;;1599302;72;676;-61
2023/11/05 00:32:22;;;;;;;;;;;19.90;55.80;;;;;;1602698;72;1091;-61
2023/11/05 00:34:24;;;;;;;;;;;19.80;55.70;;;;;;1602072;72;769;-61
2023/11/05 00:36:26;;;;;;;;;;;19.90;55.90;;;;;;1598942;72;695;-61
2023/11/05 00:38:28;;;;;;;;;;;19.80;55.90;;;;;;1600069;72;1943;-61
2023/11/05 00:40:30;;;;;;;;;;;19.90;55.80;;;;;;1598402;72;802;-60
2023/11/05 00:42:32;;;;;;;;;;;19.90;55.80;;;;;;1600529;72;1619;-61
2023/11/05 00:44:34;;;;;;;;;;;19.90;56.00;;;;;;1599268;72;765;-60
2023/11/05 00:46:35;;;;;;;;;;;19.90;55.80;;;;;;1601959;72;708;-62
2023/11/05 00:48:37;;;;;;;;;;;19.90;55.90;;;;;;1603339;72;678;-62
2023/11/05 00:50:39;;;;;;;;;;;19.80;55.90;;;;;;1604935;72;739;-62
2023/11/05 00:52:41;;;;;;;;;;;19.90;56.10;;;;;;1598844;72;1152;-60
2023/11/05 00:54:43;;;;;;;;;;;19.90;56.10;;;;;;1599564;72;690;-59
2023/11/05 00:56:45;;;;;;;;;;;19.90;56.20;;;;;;1598249;72;1638;-62
2023/11/05 00:58:47;;;;;;;;;;;19.80;56.00;;;;;;1602614;72;1927;-61
2023/11/05 01:00:49;;;;;;;;;;;19.90;56.00;;;;;;1599518;72;797;-59
2023/11/05 01:02:51;;;;;;;;;;;19.90;56.10;;;;;;1597471;72;1135;-61
2023/11/05 01:04:52;;;;;;;;;;;19.90;56.10;;;;;;1603758;72;684;-60
2023/11/05 01:06:54;;;;;;;;;;;19.90;56.20;;;;;;1605935;72;734;-60
2023/11/05 01:08:56;;;;;;;;;;;19.90;56.10;;;;;;1590781;72;756;-61
2023/11/05 01:10:58;;;;;;;;;;;19.90;56.10;;;;;;1601646;72;1249;-60
2023/11/05 01:13:00;;;;;;;;;;;19.80;56.20;;;;;;1602520;72;1162;-58
2023/11/05 01:15:03;;;;;;;;;;;19.90;56.30;;;;;;1598791;72;750;-61
2023/11/05 01:17:05;;;;;;;;;;;19.80;56.20;;;;;;1601898;72;831;-60
2023/11/05 01:19:07;;;;;;;;;;;19.80;56.30;;;;;;1603183;72;1924;-60
2023/11/05 01:21:10;;;;;;;;;;;19.90;56.30;;;;;;1610665;72;760;-61
2023/11/05 01:23:12;;;;;;;;;;;19.90;56.30;;;;;;1586855;73;1448;-62
2023/11/05 01:25:14;;;;;;;;;;;19.90;56.30;;;;;;1601181;72;807;-61
2023/11/05 01:27:16;;;;;;;;;;;19.90;56.20;;;;;;1597830;72;725;-62
2023/11/05 01:29:18;;;;;;;;;;;19.90;56.30;;;;;;1606608;72;719;-61
2023/11/05 01:31:20;;;;;;;;;;;19.90;56.30;;;;;;1597408;72;1147;-61
2023/11/05 01:33:22;;;;;;;;;;;19.90;56.30;;;;;;1603509;72;735;-60
2023/11/05 01:35:24;;;;;;;;;;;19.90;56.30;;;;;;1598122;72;707;-59
2023/11/05 01:37:26;;;;;;;;;;;19.90;56.30;;;;;;1598495;72;1529;-60
2023/11/05 01:39:28;;;;;;;;;;;19.90;56.40;;;;;;1599427;72;1930;-61
2023/11/05 01:41:30;;;;;;;;;;;19.90;56.30;;;;;;1607458;72;1168;-60
2023/11/05 01:43:32;;;;;;;;;;;19.90;56.40;;;;;;1600462;72;725;-60
2023/11/05 01:45:34;;;;;;;;;;;19.80;56.30;;;;;;1597865;72;777;-61
2023/11/05 01:47:35;;;;;;;;;;;19.90;56.40;;;;;;1600323;72;731;-59
2023/11/05 01:49:38;;;;;;;;;;;19.80;56.40;;;;;;1593856;72;682;-61
2023/11/05 01:51:40;;;;;;;;;;;19.90;56.50;;;;;;1593521;72;1580;-62
2023/11/05 01:53:42;;;;;;;;;;;19.80;56.40;;;;;;1595875;72;669;-60
2023/11/05 01:55:44;;;;;;;;;;;19.80;56.50;;;;;;1602882;72;917;-62
2023/11/05 01:57:46;;;;;;;;;;;19.80;56.40;;;;;;1602261;72;767;-61
2023/11/05 01:59:48;;;;;;;;;;;19.90;56.50;;;;;;1595859;72;1939;-60
2023/11/05 02:01:50;;;;;;;;;;;19.80;56.50;;;;;;1603331;72;1170;-61
2023/11/05 02:03:52;;;;;;;;;;;19.90;56.60;;;;;;1602717;72;776;-61
2023/11/05 02:05:54;;;;;;;;;;;19.90;56.70;;;;;;1597675;72;1552;-60
2023/11/05 02:07:55;;;;;;;;;;;19.80;56.60;;;;;;1614436;72;676;-61
2023/11/05 02:09:57;;;;;;;;;;;19.80;56.60;;;;;;1602835;72;773;-59
2023/11/05 02:11:59;;;;;;;;;;;19.80;56.60;;;;;;1601137;72;1174;-60
2023/11/05 02:14:01;;;;;;;;;;;19.80;56.50;;;;;;1604122;72;736;-61
2023/11/05 02:16:03;;;;;;;;;;;19.90;56.70;;;;;;1597096;72;782;-60
2023/11/05 02:18:05;;;;;;;;;;;19.90;56.70;;;;;;1605059;72;787;-61
2023/11/05 02:20:08;;;;;;;;;;;19.80;56.60;;;;;;1603653;72;1939;-59
2023/11/05 02:22:14;;;;;;;;;;;19.80;56.60;;;;;;1597001;72;1154;-60
2023/11/05 02:24:13;;;;;;;;;;;19.90;56.80;;;;;;1597759;72;1510;-59
2023/11/05 02:26:15;;;;;;;;;;;19.80;56.90;;;;;;1584948;73;767;-61
2023/11/05 02:28:17;;;;;;;;;;;19.80;56.80;;;;;;1591556;73;716;-61
2023/11/05 02:30:19;;;;;;;;;;;19.90;56.90;;;;;;1607284;72;651;-60
2023/11/05 02:32:21;;;;;;;;;;;19.80;56.90;;;;;;1599652;72;1155;-61
2023/11/05 02:34:23;;;;;;;;;;;19.80;56.90;;;;;;1615510;72;1364;-60
2023/11/05 02:36:25;;;;;;;;;;;19.90;57.00;;;;;;1610479;72;778;-61
2023/11/05 02:38:27;;;;;;;;;;;19.80;56.90;;;;;;1610508;72;772;-61
2023/11/05 02:40:29;;;;;;;;;;;19.80;57.10;;;;;;1608417;72;1934;-62
2023/11/05 02:42:31;;;;;;;;;;;19.80;57.60;;;;;;1608845;72;1159;-61
2023/11/05 02:44:33;;;;;;;;;;;19.80;57.70;;;;;;1610335;72;759;-60
2023/11/05 02:46:35;;;;;;;;;;;19.80;57.80;;;;;;1620830;72;758;-59
2023/11/05 02:48:37;;;;;;;;;;;19.80;57.80;;;;;;1613189;72;1574;-60
2023/11/05 02:50:39;;;;;;;;;;;19.80;57.10;;;;;;1578912;73;778;-58
2023/11/05 02:52:41;;;;;;;;;;;19.80;57.70;;;;;;1606809;72;1160;-59
2023/11/05 02:54:43;;;;;;;;;;;19.70;57.70;;;;;;1578646;73;747;-60
2023/11/05 02:56:45;;;;;;;;;;;19.90;57.80;;;;;;1596152;72;704;-60
2023/11/05 02:58:48;;;;;;;;;;;19.80;57.60;;;;;;1589218;73;775;-59
2023/11/05 03:00:50;;;;;;;;;;;19.80;57.80;;;;;;1604354;72;1909;-60
2023/11/05 03:02:51;;;;;;;;;;;19.80;57.90;;;;;;1596781;72;1563;-59
2023/11/05 03:04:59;;;;;;;;;;;19.80;57.80;;;;;;1604898;72;731;-60
2023/11/05 03:07:01;;;;;;;;;;;19.80;57.80;;;;;;1603597;72;799;-61
2023/11/05 03:09:03;;;;;;;;;;;19.80;57.90;;;;;;1599390;72;700;-61
2023/11/05 03:11:05;;;;;;;;;;;19.90;58.00;;;;;;1601123;72;742;-61
2023/11/05 03:13:07;;;;;;;;;;;19.80;58.00;;;;;;1608985;72;1133;-59
2023/11/05 03:15:09;;;;;;;;;;;19.80;57.90;;;;;;1599143;72;817;-59
2023/11/05 03:17:12;;;;;;;;;;;19.80;57.90;;;;;;1605560;72;1512;-58
2023/11/05 03:19:16;;;;;;;;;;;19.80;58.00;;;;;;1586984;73;1901;-60
2023/11/05 03:21:18;;;;;;;;;;;19.80;58.00;;;;;;1602832;72;1151;-61
2023/11/05 03:23:20;;;;;;;;;;;19.80;58.10;;;;;;1602542;72;716;-60
2023/11/05 03:25:22;;;;;;;;;;;19.80;58.00;;;;;;1607948;72;867;-60
2023/11/05 03:27:24;;;;;;;;;;;19.80;58.10;;;;;;1599984;72;775;-60
2023/11/05 03:29:26;;;;;;;;;;;19.80;58.20;;;;;;1603045;72;687;-61
2023/11/05 03:31:28;;;;;;;;;;;19.80;58.20;;;;;;1574654;74;1533;-59
2023/11/05 03:33:30;;;;;;;;;;;19.80;58.20;;;;;;1601882;72;696;-60
2023/11/05 03:35:32;;;;;;;;;;;19.80;58.20;;;;;;1601967;72;813;-59
2023/11/05 03:37:34;;;;;;;;;;;19.80;58.20;;;;;;1599272;72;813;-61
2023/11/05 03:39:36;;;;;;;;;;;19.80;58.20;;;;;;1594636;72;1942;-62
2023/11/05 03:41:38;;;;;;;;;;;19.80;58.20;;;;;;1604298;72;1163;-61
2023/11/05 03:43:40;;;;;;;;;;;19.80;58.20;;;;;;1605436;72;713;-61
2023/11/05 03:45:42;;;;;;;;;;;19.80;58.20;;;;;;1596896;72;1680;-59
2023/11/05 03:47:44;;;;;;;;;;;19.80;58.20;;;;;;1591788;72;773;-62
2023/11/05 03:49:46;;;;;;;;;;;19.80;58.20;;;;;;1600893;72;851;-61
2023/11/05 03:51:48;;;;;;;;;;;19.80;58.20;;;;;;1611865;72;1150;-61
2023/11/05 03:53:50;;;;;;;;;;;19.80;58.30;;;;;;1604571;72;674;-60
2023/11/05 03:55:52;;;;;;;;;;;19.80;58.30;;;;;;1598655;72;786;-61
2023/11/05 03:57:54;;;;;;;;;;;19.80;58.40;;;;;;1587916;73;1558;-61
2023/11/05 03:59:55;;;;;;;;;;;19.80;58.40;;;;;;1602292;72;1926;-60
2023/11/05 04:01:57;;;;;;;;;;;19.80;58.40;;;;;;1598527;72;1135;-62
2023/11/05 04:03:59;;;;;;;;;;;19.80;58.30;;;;;;1598736;72;728;-63
2023/11/05 04:06:01;;;;;;;;;;;19.80;58.30;;;;;;1603656;72;777;-62
2023/11/05 04:08:03;;;;;;;;;;;19.80;58.40;;;;;;1602517;72;868;-62
2023/11/05 04:10:05;;;;;;;;;;;19.80;58.50;;;;;;1598326;72;725;-63
2023/11/05 04:12:07;;;;;;;;;;;19.80;58.50;;;;;;1603231;72;1381;-63
2023/11/05 04:14:09;;;;;;;;;;;19.80;58.50;;;;;;1606869;72;729;-64
2023/11/05 04:16:11;;;;;;;;;;;19.80;58.50;;;;;;1604181;72;781;-64
2023/11/05 04:18:13;;;;;;;;;;;19.80;58.50;;;;;;1604472;72;727;-63
2023/11/05 04:20:15;;;;;;;;;;;19.80;58.50;;;;;;1598541;72;1935;-62
2023/11/05 04:22:17;;;;;;;;;;;19.80;58.50;;;;;;1597171;72;1151;-62
2023/11/05 04:24:19;;;;;;;;;;;19.80;58.50;;;;;;1602111;72;748;-62
2023/11/05 04:26:21;;;;;;;;;;;19.70;58.50;;;;;;1599541;72;1562;-62
2023/11/05 04:28:23;;;;;;;;;;;19.80;58.60;;;;;;1599606;72;775;-63
2023/11/05 04:30:25;;;;;;;;;;;19.80;58.60;;;;;;1607544;72;803;-62
2023/11/05 04:32:27;;;;;;;;;;;19.80;58.60;;;;;;1600636;72;1148;-61
2023/11/05 04:34:32;;;;;;;;;;;19.80;58.60;;;;;;1594686;72;698;-62
2023/11/05 04:36:34;;;;;;;;;;;19.80;58.60;;;;;;1602498;72;1801;-63
2023/11/05 04:38:36;;;;;;;;;;;19.80;58.70;;;;;;1609142;72;1428;-62
2023/11/05 04:40:38;;;;;;;;;;;19.80;58.60;;;;;;1602728;72;1906;-62
2023/11/05 04:42:40;;;;;;;;;;;19.70;58.70;;;;;;1597669;72;1172;-62
2023/11/05 04:44:42;;;;;;;;;;;19.80;58.70;;;;;;1598413;72;798;-62
2023/11/05 04:46:44;;;;;;;;;;;19.80;58.70;;;;;;1596249;72;713;-62
2023/11/05 04:48:46;;;;;;;;;;;19.80;58.80;;;;;;1602938;72;914;-63
2023/11/05 04:50:48;;;;;;;;;;;19.80;58.80;;;;;;1601490;72;702;-63
2023/11/05 04:52:53;;;;;;;;;;;19.80;58.70;;;;;;1599244;72;1107;-62
2023/11/05 04:54:55;;;;;;;;;;;19.80;58.70;;;;;;1600713;72;1547;-63
2023/11/05 04:56:59;;;;;;;;;;;19.80;58.70;;;;;;1603836;72;720;-63
2023/11/05 04:59:00;;;;;;;;;;;19.80;58.70;;;;;;1600732;72;765;-62
2023/11/05 05:01:03;;;;;;;;;;;19.70;58.70;;;;;;1602739;72;1948;-64
2023/11/05 05:03:05;;;;;;;;;;;19.80;58.80;;;;;;1600233;72;1126;-63
2023/11/05 05:05:08;;;;;;;;;;;19.70;58.70;;;;;;1602269;72;812;-65
2023/11/05 05:07:09;;;;;;;;;;;19.80;58.80;;;;;;1602850;72;760;-66
2023/11/05 05:09:12;;;;;;;;;;;19.70;58.80;;;;;;1600353;72;1494;-63
2023/11/05 05:11:15;;;;;;;;;;;19.70;58.70;;;;;;1611581;72;1197;-63
2023/11/05 05:13:17;;;;;;;;;;;19.80;58.70;;;;;;1597225;72;712;-64
2023/11/05 05:15:19;;;;;;;;;;;19.80;58.80;;;;;;1602075;72;664;-62
2023/11/05 05:17:21;;;;;;;;;;;19.70;58.70;;;;;;1604672;72;721;-62
2023/11/05 05:19:22;;;;;;;;;;;19.80;58.80;;;;;;1600879;72;848;-64
2023/11/05 05:21:24;;;;;;;;;;;19.80;58.90;;;;;;1599250;72;1940;-62
2023/11/05 05:23:26;;;;;;;;;;;19.80;58.80;;;;;;1602195;72;1331;-62
2023/11/05 05:25:28;;;;;;;;;;;19.80;58.90;;;;;;1610022;72;697;-62
2023/11/05 05:27:30;;;;;;;;;;;19.80;58.80;;;;;;1606843;72;661;-62
2023/11/05 05:29:32;;;;;;;;;;;19.80;58.80;;;;;;1602645;72;828;-63
2023/11/05 05:31:34;;;;;;;;;;;19.80;58.80;;;;;;1595484;72;1144;-64
2023/11/05 05:33:36;;;;;;;;;;;19.80;58.80;;;;;;1605369;72;749;-62
2023/11/05 05:35:38;;;;;;;;;;;19.80;58.90;;;;;;1598424;72;745;-62
2023/11/05 05:37:40;;;;;;;;;;;19.80;58.90;;;;;;1599709;72;1579;-62
2023/11/05 05:39:42;;;;;;;;;;;19.70;58.90;;;;;;1605344;72;762;-63
2023/11/05 05:41:44;;;;;;;;;;;19.80;59.00;;;;;;1604574;72;1915;-62
2023/11/05 05:43:46;;;;;;;;;;;19.80;58.90;;;;;;1598872;72;744;-62
2023/11/05 05:45:47;;;;;;;;;;;19.80;58.90;;;;;;1604807;72;682;-63
2023/11/05 05:47:49;;;;;;;;;;;19.80;59.00;;;;;;1603936;72;727;-65
2023/11/05 05:49:51;;;;;;;;;;;19.80;59.00;;;;;;1603829;72;750;-63
2023/11/05 05:51:53;;;;;;;;;;;19.80;59.00;;;;;;1602820;72;1533;-63
2023/11/05 05:53:55;;;;;;;;;;;19.70;59.00;;;;;;1604485;72;762;-64
2023/11/05 05:55:57;;;;;;;;;;;19.70;59.00;;;;;;1597326;72;789;-64
2023/11/05 05:58:00;;;;;;;;;;;19.80;59.10;;;;;;1613464;72;784;-64
2023/11/05 06:00:09;;;;;;;;;;;19.80;59.00;;;;;;1603786;72;759;-63
2023/11/05 06:02:09;;;;;;;;;;;19.80;59.00;;;;;;1592345;72;1915;-63
2023/11/05 06:04:11;;;;;;;;;;;19.80;59.10;;;;;;1596653;72;675;-64
2023/11/05 06:06:12;;;;;;;;;;;19.80;59.10;;;;;;1598794;72;1568;-63
2023/11/05 06:08:14;;;;;;;;;;;19.70;59.00;;;;;;1599179;72;770;-63
2023/11/05 06:10:16;;;;;;;;;;;19.80;59.10;;;;;;1601693;72;762;-63
2023/11/05 06:12:18;;;;;;;;;;;19.80;59.00;;;;;;1596088;72;1168;-60
2023/11/05 06:14:20;;;;;;;;;;;19.80;59.00;;;;;;1602811;72;690;-62
2023/11/05 06:16:22;;;;;;;;;;;19.80;59.00;;;;;;1603804;72;700;-65
2023/11/05 06:18:25;;;;;;;;;;;19.80;59.10;;;;;;1601167;72;737;-64
2023/11/05 06:20:26;;;;;;;;;;;19.80;59.00;;;;;;1605513;72;1926;-63
2023/11/05 06:22:28;;;;;;;;;;;19.80;59.00;;;;;;1603244;72;1146;-63
2023/11/05 06:24:30;;;;;;;;;;;19.80;58.90;;;;;;1593773;72;707;-63
2023/11/05 06:26:32;;;;;;;;;;;19.80;58.90;;;;;;1604471;72;866;-64
2023/11/05 06:28:34;;;;;;;;;;;19.80;59.00;;;;;;1603616;72;744;-63
2023/11/05 06:30:36;;;;;;;;;;;19.80;59.00;;;;;;1601339;72;819;-63
2023/11/05 06:32:42;;;;;;;;;;;19.80;59.00;;;;;;1618914;72;1370;-63
2023/11/05 06:34:41;;;;;;;;;;;19.80;59.10;;;;;;1603283;72;1192;-63
2023/11/05 06:37:02;;;;;;;;;;;19.80;59.10;;;;;;1603536;72;659;-64
2023/11/05 06:39:04;;;;;;;;;;;19.80;59.10;;;;;;1602842;72;717;-63
2023/11/05 06:41:06;;;;;;;;;;;19.80;59.10;;;;;;1600440;72;1932;-64
2023/11/05 06:43:07;;;;;;;;;;;19.80;59.20;;;;;;1604176;72;1089;-63
2023/11/05 06:45:09;;;;;;;;;;;19.80;59.20;;;;;;1604026;72;713;-64
2023/11/05 06:47:11;;;;;;;;;;;19.80;59.20;;;;;;1604624;72;1556;-62
2023/11/05 06:49:13;;;;;;;;;;;19.80;59.20;;;;;;1600153;72;733;-64
2023/11/05 06:51:15;;;;;;;;;;;19.90;59.30;;;;;;1601627;72;1104;-63
2023/11/05 06:53:17;;;;;;;;;;;19.70;59.20;;;;;;1599187;72;650;-64
2023/11/05 06:55:19;;;;;;;;;;;19.80;59.30;;;;;;1609054;72;779;-64
2023/11/05 06:57:21;;;;;;;;;;;19.80;59.10;;;;;;1608870;72;726;-62
2023/11/05 06:59:23;;;;;;;;;;;19.80;59.10;;;;;;1610750;72;674;-62
2023/11/05 07:01:25;;;;;;;;;;;19.80;59.20;;;;;;1600208;72;1924;-64
2023/11/05 07:03:27;;;;;;;;;;;19.80;59.20;;;;;;1601652;72;730;-64
2023/11/05 07:05:29;;;;;;;;;;;19.80;59.30;;;;;;1605073;72;747;-61
2023/11/05 07:07:34;;;;;;;;;;;19.80;59.20;;;;;;1608453;72;810;-63
2023/11/05 07:09:36;;;;;;;;;;;19.80;59.20;;;;;;1603684;72;758;-62
2023/11/05 07:11:38;;;;;;;;;;;19.80;59.20;;;;;;1600981;72;1121;-64
2023/11/05 07:13:40;;;;;;;;;;;19.80;59.20;;;;;;1588433;73;785;-64
2023/11/05 07:15:42;;;;;;;;;;;19.80;59.20;;;;;;1602799;72;1562;-63
2023/11/05 07:17:45;;;;;;;;;;;19.80;59.10;;;;;;1603404;72;818;-63
2023/11/05 07:19:47;;;;;;;;;;;19.80;59.20;;;;;;1604533;72;762;-63
2023/11/05 07:21:49;;;;;;;;;;;19.80;59.20;;;;;;1602276;72;1941;-64
2023/11/05 07:23:51;;;;;;;;;;;19.80;59.20;;;;;;1602676;72;666;-63
2023/11/05 07:25:54;;;;;;;;;;;19.70;59.30;;;;;;1604834;72;682;-62
2023/11/05 07:27:56;;;;;;;;;;;19.70;59.30;;;;;;1603404;72;714;-62
2023/11/05 07:29:59;;;;;;;;;;;19.80;59.30;;;;;;1603917;72;1396;-63
2023/11/05 07:32:02;;;;;;;;;;;19.80;59.30;;;;;;1598304;72;1149;-63
2023/11/05 07:34:04;;;;;;;;;;;19.80;59.30;;;;;;1602145;72;872;-63
2023/11/05 07:36:06;;;;;;;;;;;19.80;59.40;;;;;;1604072;72;782;-63
2023/11/05 07:38:08;;;;;;;;;;;19.80;59.30;;;;;;1598955;72;718;-63
2023/11/05 07:40:11;;;;;;;;;;;19.80;59.40;;;;;;1607950;72;802;-62
2023/11/05 07:42:13;;;;;;;;;;;19.80;59.40;;;;;;1604217;72;1908;-62
2023/11/05 07:44:15;;;;;;;;;;;19.80;59.40;;;;;;1603082;72;1602;-62
2023/11/05 07:46:17;;;;;;;;;;;19.70;59.30;;;;;;1599574;72;675;-63
2023/11/05 07:48:19;;;;;;;;;;;19.80;59.40;;;;;;1603698;72;705;-63
2023/11/05 07:50:22;;;;;;;;;;;19.80;59.40;;;;;;1602886;72;694;-63
2023/11/05 07:52:24;;;;;;;;;;;19.80;59.50;;;;;;1607278;72;1196;-63
2023/11/05 07:54:26;;;;;;;;;;;19.80;59.40;;;;;;1605005;72;778;-62
2023/11/05 07:56:28;;;;;;;;;;;19.80;59.40;;;;;;1604697;72;783;-63
2023/11/05 07:58:30;;;;;;;;;;;19.80;59.40;;;;;;1590692;72;1515;-60
2023/11/05 08:00:32;;;;;;;;;;;19.80;59.40;;;;;;1597135;72;723;-62
2023/11/05 08:02:34;;;;;;;;;;;19.80;59.60;;;;;;1606088;72;1928;-61
2023/11/05 08:04:36;;;;;;;;;;;19.80;59.40;;;;;;1606003;72;643;-62
2023/11/05 08:06:38;;;;;;;;;;;19.80;59.60;;;;;;1603714;72;706;-62
2023/11/05 08:08:41;;;;;;;;;;;19.80;59.70;;;;;;1604166;72;598;-63
2023/11/05 08:10:43;;;;;;;;;;;19.80;59.70;;;;;;1602653;72;769;-62
2023/11/05 08:12:45;;;;;;;;;;;19.80;59.70;;;;;;1600109;72;1454;-62
2023/11/05 08:14:47;;;;;;;;;;;19.80;59.70;;;;;;1602384;72;747;-63
2023/11/05 08:16:50;;;;;;;;;;;19.70;59.70;;;;;;1601688;72;752;-63
2023/11/05 08:18:52;;;;;;;;;;;19.80;59.70;;;;;;1608653;72;782;-63
2023/11/05 08:20:54;;;;;;;;;;;19.80;59.60;;;;;;1601332;72;667;-61
2023/11/05 08:22:56;;;;;;;;;;;19.80;59.60;;;;;;1600862;72;1928;-63
2023/11/05 08:24:57;;;;;;;;;;;19.80;59.60;;;;;;1600829;72;598;-63
2023/11/05 08:26:59;;;;;;;;;;;19.80;59.50;;;;;;1591268;72;1593;-62
2023/11/05 08:29:02;;;;;;;;;;;19.80;59.60;;;;;;1588059;73;673;-64
2023/11/05 08:31:06;;;;;;;;;;;19.80;59.50;;;;;;1604201;72;611;-63
2023/11/05 08:33:07;;;;;;;;;;;19.70;59.50;;;;;;1603026;72;1713;-63
2023/11/05 08:35:09;;;;;;;;;;;19.80;59.50;;;;;;1601255;72;753;-64
2023/11/05 08:37:11;;;;;;;;;;;19.80;59.40;;;;;;1602956;72;787;-64
2023/11/05 08:39:19;;;;;;;;;;;19.80;59.40;;;;;;1597688;72;1434;-62
2023/11/05 08:41:17;;;;;;;;;;;19.70;59.60;;;;;;1599526;72;1929;-62
2023/11/05 08:43:19;;;;;;;;;;;19.80;59.50;;;;;;1598483;72;687;-62
2023/11/05 08:45:21;;;;;;;;;;;19.70;59.50;;;;;;1600326;72;730;-65
2023/11/05 08:47:23;;;;;;;;;;;19.80;59.50;;;;;;1603921;72;745;-65
2023/11/05 08:49:25;;;;;;;;;;;19.80;59.50;;;;;;1601460;72;734;-66
2023/11/05 08:51:33;;;;;;;;;;;19.80;59.50;;;;;;1612838;72;1196;-66
2023/11/05 08:53:34;;;;;;;;;;;19.80;59.50;;;;;;1607038;72;1680;-66
2023/11/05 08:55:36;;;;;;;;;;;19.80;59.50;;;;;;1600329;72;672;-64
2023/11/05 08:57:38;;;;;;;;;;;19.80;59.50;;;;;;1613468;72;797;-65
2023/11/05 08:59:43;;;;;;;;;;;19.80;59.40;;;;;;1610940;72;850;-65
2023/11/05 09:01:45;;;;;;;;;;;19.80;59.40;;;;;;1606920;72;1941;-65
2023/11/05 09:03:48;;;;;;;;;;;19.80;59.30;;;;;;1608223;72;779;-67
2023/11/05 09:05:50;;;;;;;;;;;19.80;59.30;;;;;;1615392;72;838;-65
2023/11/05 09:07:57;;;;;;;;;;;19.80;59.40;;;;;;1613173;72;1457;-65
2023/11/05 09:09:59;;;;;;;;;;;19.80;59.40;;;;;;1614116;72;731;-66
2023/11/05 09:12:03;;;;;;;;;;;19.80;59.30;;;;;;1598240;72;1191;-65
2023/11/05 09:14:05;;;;;;;;;;;19.80;59.30;;;;;;1611540;72;793;-66
2023/11/05 09:16:07;;;;;;;;;;;19.80;59.50;;;;;;1608916;72;720;-63
2023/11/05 09:18:09;;;;;;;;;;;19.80;59.40;;;;;;1610200;72;752;-65
2023/11/05 09:20:11;;;;;;;;;;;19.80;59.40;;;;;;1611805;72;700;-65
2023/11/05 09:22:14;;;;;;;;;;;19.80;59.30;;;;;;1614089;72;1946;-65
2023/11/05 09:24:16;;;;;;;;;;;19.80;59.30;;;;;;1607674;72;786;-63
2023/11/05 09:26:19;;;;;;;;;;;19.80;59.40;;;;;;1615990;72;814;-63
2023/11/05 09:28:21;;;;;;;;;;;19.90;59.50;;;;;;1608253;72;682;-62
2023/11/05 09:30:23;;;;;;;;;;;19.90;59.80;;;;;;1600627;72;680;-64
2023/11/05 09:32:25;;;;;;;;;;;19.90;59.80;;;;;;1613813;72;1092;-65
2023/11/05 09:34:27;;;;;;;;;;;19.90;59.50;;;;;;1614655;72;822;-64
2023/11/05 09:36:29;;;;;;;;;;;19.90;59.40;;;;;;1608425;72;1490;-63
2023/11/05 09:38:33;;;;;;;;;;;19.90;59.30;;;;;;1616411;72;680;-60
2023/11/05 09:40:35;;;;;;;;;;;19.90;59.20;;;;;;1610642;72;719;-61
2023/11/05 09:42:41;;;;;;;;;;;19.90;59.20;;;;;;1617289;72;1936;-61
2023/11/05 09:44:43;;;;;;;;;;;19.90;59.10;;;;;;1613017;72;1746;-61
2023/11/05 09:46:45;;;;;;;;;;;19.90;59.00;;;;;;1608744;72;762;-62
2023/11/05 09:48:47;;;;;;;;;;;19.90;59.00;;;;;;1609148;72;790;-61
2023/11/05 09:50:49;;;;;;;;;;;19.80;58.80;;;;;;1610368;72;1481;-63
2023/11/05 09:52:51;;;;;;;;;;;19.90;59.00;;;;;;1608671;72;1134;-62
2023/11/05 09:54:53;;;;;;;;;;;19.90;59.00;;;;;;1608537;72;671;-61
2023/11/05 09:56:56;;;;;;;;;;;20.00;56.30;;;;;;1606583;72;657;-62
2023/11/05 09:58:57;;;;;;;;;;;19.90;55.10;;;;;;1620147;72;804;-63
2023/11/05 10:00:59;;;;;;;;;;;19.80;54.80;;;;;;1610724;72;1163;-62
2023/11/05 10:03:07;;;;;;;;;;;19.80;53.90;;;;;;1607385;72;1934;-62
2023/11/05 10:05:08;;;;;;;;;;;19.70;53.60;;;;;;1612225;72;1672;-66
2023/11/05 10:07:10;;;;;;;;;;;19.60;53.10;;;;;;1606775;72;1101;-66
2023/11/05 10:09:12;;;;;;;;;;;19.50;53.20;;;;;;1613590;72;1056;-64
2023/11/05 10:11:14;;;;;;;;;;;19.60;53.60;;;;;;1613068;72;1431;-65
2023/11/05 10:13:16;;;;;;;;;;;19.50;53.40;;;;;;1615678;72;1119;-65
2023/11/05 10:15:23;;;;;;;;;;;19.40;53.20;;;;;;1613411;72;1301;-65
2023/11/05 10:17:25;;;;;;;;;;;19.40;53.40;;;;;;1618069;72;1669;-66
2023/11/05 10:19:27;;;;;;;;;;;19.40;53.50;;;;;;1612832;72;1406;-65
2023/11/05 10:21:35;;;;;;;;;;;19.30;53.40;;;;;;1604398;72;1174;-66
2023/11/05 10:23:54;;;;;;;;;;;19.40;53.30;;;;;;1609446;72;1920;-64
2023/11/05 10:25:56;;;;;;;;;;;19.30;53.20;;;;;;1606810;72;1204;-66
2023/11/05 10:28:01;;;;;;;;;;;19.30;53.40;;;;;;1605168;72;1226;-65
2023/11/05 10:30:04;;;;;;;;;;;19.30;53.30;;;;;;1615465;72;1228;-65
2023/11/05 10:32:06;;;;;;;;;;;19.20;53.10;;;;;;1608911;72;1129;-64
2023/11/05 10:34:08;;;;;;;;;;;19.10;53.00;;;;;;1602087;72;1235;-67
2023/11/05 10:36:10;;;;;;;;;;;19.10;53.30;;;;;;1610701;72;1211;-64
2023/11/05 10:38:18;;;;;;;;;;;19.10;53.50;;;;;;1607446;72;1202;-65
2023/11/05 10:40:19;;;;;;;;;;;19.10;53.20;;;;;;1604374;72;1545;-66
2023/11/05 10:42:21;;;;;;;;;;;19.10;53.40;;;;;;1608726;72;1942;-65
2023/11/05 10:44:23;;;;;;;;;;;19.20;53.40;;;;;;1612790;72;1181;-67
2023/11/05 10:46:25;;;;;;;;;;;19.20;53.30;;;;;;1611796;72;1279;-65
2023/11/05 10:48:28;;;;;;;;;;;19.10;53.10;;;;;;1610700;72;1196;-66
2023/11/05 10:50:30;;;;;;;;;;;19.10;53.20;;;;;;1608779;72;1108;-65
2023/11/05 10:52:32;;;;;;;;;;;19.10;53.10;;;;;;1611680;72;1121;-66
2023/11/05 10:54:34;;;;;;;;;;;19.10;52.90;;;;;;1607777;72;1361;-65
2023/11/05 10:56:41;;;;;;;;;;;19.10;52.60;;;;;;1607077;72;1303;-65
2023/11/05 10:58:44;;;;;;;;;;;19.10;52.80;;;;;;1610831;72;1681;-65
2023/11/05 11:00:46;;;;;;;;;;;19.10;52.80;;;;;;1610299;72;1239;-64
2023/11/05 11:02:48;;;;;;;;;;;19.10;52.60;;;;;;1607938;72;1937;-64
2023/11/05 11:04:50;;;;;;;;;;;19.10;52.50;;;;;;1605901;72;1072;-64
2023/11/05 11:06:52;;;;;;;;;;;19.00;52.40;;;;;;1604586;72;1397;-65
2023/11/05 11:09:00;;;;;;;;;;;19.00;52.50;;;;;;1602250;72;1262;-65
2023/11/05 11:11:08;;;;;;;;;;;19.00;52.60;;;;;;1608160;72;1311;-67
2023/11/05 11:13:20;;;;;;;;;;;19.00;52.70;;;;;;1607917;72;1277;-64
2023/11/05 11:15:36;;;;;;;;;;;19.00;52.70;;;;;;1608965;72;1115;-63
2023/11/05 11:17:41;;;;;;;;;;;19.10;52.80;;;;;;1608709;72;1227;-65
2023/11/05 11:19:43;;;;;;;;;;;19.10;52.80;;;;;;1595840;72;1320;-65
2023/11/05 11:21:50;;;;;;;;;;;19.10;52.80;;;;;;1607094;72;1267;-67
2023/11/05 11:23:52;;;;;;;;;;;19.20;52.70;;;;;;1604687;72;1933;-65
2023/11/05 11:25:56;;;;;;;;;;;19.20;52.60;;;;;;1604656;72;1280;-67
2023/11/05 11:28:10;;;;;;;;;;;19.20;52.50;;;;;;1589668;72;1325;-62
2023/11/05 11:30:12;;;;;;;;;;;19.10;52.40;;;;;;1577264;73;1277;-63
2023/11/05 11:32:16;;;;;;;;;;;19.10;52.30;;;;;;1535757;75;1172;-62
2023/11/05 11:34:21;;;;;;;;;;;19.20;52.30;;;;;;1508121;77;1431;-62
2023/11/05 11:36:24;;;;;;;;;;;19.10;52.10;;;;;;1509616;77;1257;-63
2023/11/05 11:38:26;;;;;;;;;;;19.10;52.00;;;;;;1518366;76;1360;-66
2023/11/05 11:40:28;;;;;;;;;;;19.10;51.80;;;;;;1511306;77;1316;-66
2023/11/05 11:42:31;;;;;;;;;;;19.10;51.70;;;;;;1512264;76;1292;-65
2023/11/05 11:44:33;;;;;;;;;;;19.00;51.50;;;;;;1515989;76;1328;-66
2023/11/05 11:46:35;;;;;;;;;;;19.10;51.60;;;;;;1515170;76;1926;-65
2023/11/05 11:48:38;;;;;;;;;;;19.10;51.60;;;;;;1503675;77;1465;-65
2023/11/05 11:50:44;;;;;;;;;;;19.00;51.50;;;;;;1512119;76;1347;-66
2023/11/05 11:52:50;;;;;;;;;;;19.00;51.60;;;;;;1502533;77;1874;-65
2023/11/05 11:54:52;;;;;;;;;;;19.10;51.70;;;;;;1510504;77;1324;-66
2023/11/05 11:56:54;;;;;;;;;;;19.00;51.80;;;;;;1504067;77;1497;-66
2023/11/05 11:58:57;;;;;;;;;;;19.00;51.80;;;;;;1508300;77;1284;-65
2023/11/05 12:00:59;;;;;;;;;;;19.00;51.80;;;;;;1473064;78;1333;-65
2023/11/05 12:03:01;;;;;;;;;;;19.00;51.80;;;;;;1508287;77;1174;-65
2023/11/05 12:05:03;;;;;;;;;;;19.00;52.00;;;;;;1501563;77;1478;-65
2023/11/05 12:07:05;;;;;;;;;;;19.00;51.80;;;;;;1507809;77;1924;-68
2023/11/05 12:09:08;;;;;;;;;;;19.00;52.00;;;;;;1513283;77;1176;-65